KHKY

Hickory Regional Airport

Hickory, North Carolina, USA
METAR KHKY 230953Z AUTO 30004KT 10SM CLR 04/04 A3019 RMK AO2 SLP212 T00440044
Observed Flight Rules
Oct-23 @ 09:53 UTC (37 minutes ago) Visual Flight Rules
Wind Visibility Clouds
300° at 4 knots 10 miles
  • Clear skies
Temperatures Readings
Current 4°C / 39°F
Dewpoint 4°C / 39°F
Humidity 100%
Altimeter 30.19" Hg
Pressure 1021.2 hPa
Elevation 354
METAR KHKY 230953Z AUTO 30004KT 10SM CLR 04/04 A3019 RMK AO2 SLP212 T00440044
Observed Flight Rules
Oct-23 @ 09:53 UTC
(37 minutes ago)
VFR
Wind Visibility
300° at 4 knots 10 miles
Clouds
  • Clear skies
Temperature Dewpoint
4°C / 39°F 4°C / 39°F
Humidity Altimeter Pressure
100% 30.19" Hg 1021.2 hPa